sensor_id;sensor_type;location;lat;lon;timestamp;temperature;humidity
34955;DHT22;21639;51.460;-2.536;2022-08-04T00:00:11;17.40;99.90
34955;DHT22;21639;51.460;-2.536;2022-08-04T00:10:54;17.20;99.90
34955;DHT22;21639;51.460;-2.536;2022-08-04T00:13:23;17.10;99.90
34955;DHT22;21639;51.460;-2.536;2022-08-04T00:15:56;17.10;99.90
34955;DHT22;21639;51.460;-2.536;2022-08-04T00:18:45;17.10;99.90
34955;DHT22;21639;51.460;-2.536;2022-08-04T00:21:14;17.00;99.90
34955;DHT22;21639;51.460;-2.536;2022-08-04T00:23:43;16.90;99.90
34955;DHT22;21639;51.460;-2.536;2022-08-04T00:26:09;16.90;99.90
34955;DHT22;21639;51.460;-2.536;2022-08-04T00:28:37;16.70;99.90
34955;DHT22;21639;51.460;-2.536;2022-08-04T00:31:09;16.90;99.90
34955;DHT22;21639;51.460;-2.536;2022-08-04T00:33:36;16.70;99.90
34955;DHT22;21639;51.460;-2.536;2022-08-04T00:36:03;16.70;99.90
34955;DHT22;21639;51.460;-2.536;2022-08-04T00:38:29;16.70;99.90
34955;DHT22;21639;51.460;-2.536;2022-08-04T00:41:12;16.60;99.90
34955;DHT22;21639;51.460;-2.536;2022-08-04T00:46:41;16.70;99.90
34955;DHT22;21639;51.460;-2.536;2022-08-04T00:52:33;16.70;99.90
34955;DHT22;21639;51.460;-2.536;2022-08-04T01:00:23;16.50;99.90
34955;DHT22;21639;51.460;-2.536;2022-08-04T01:03:14;16.40;99.90
34955;DHT22;21639;51.460;-2.536;2022-08-04T01:16:45;16.50;99.90
34955;DHT22;21639;51.460;-2.536;2022-08-04T01:30:42;16.00;99.90
34955;DHT22;21639;51.460;-2.536;2022-08-04T01:33:13;16.00;99.90
34955;DHT22;21639;51.460;-2.536;2022-08-04T01:35:50;16.00;99.90
34955;DHT22;21639;51.460;-2.536;2022-08-04T01:38:37;15.90;99.90
34955;DHT22;21639;51.460;-2.536;2022-08-04T01:41:08;15.80;99.90
34955;DHT22;21639;51.460;-2.536;2022-08-04T01:43:41;15.70;99.90
34955;DHT22;21639;51.460;-2.536;2022-08-04T01:46:10;15.60;99.90
34955;DHT22;21639;51.460;-2.536;2022-08-04T01:48:37;15.60;99.90
34955;DHT22;21639;51.460;-2.536;2022-08-04T01:51:05;15.60;99.90
34955;DHT22;21639;51.460;-2.536;2022-08-04T01:53:39;15.70;99.90
34955;DHT22;21639;51.460;-2.536;2022-08-04T01:56:07;15.60;99.90
34955;DHT22;21639;51.460;-2.536;2022-08-04T01:58:35;15.60;99.90
34955;DHT22;21639;51.460;-2.536;2022-08-04T02:01:05;15.60;99.90
34955;DHT22;21639;51.460;-2.536;2022-08-04T02:03:32;15.60;99.90
34955;DHT22;21639;51.460;-2.536;2022-08-04T02:11:22;15.50;99.90
34955;DHT22;21639;51.460;-2.536;2022-08-04T02:14:01;15.50;99.90
34955;DHT22;21639;51.460;-2.536;2022-08-04T02:16:48;15.50;99.90
34955;DHT22;21639;51.460;-2.536;2022-08-04T02:19:18;15.40;99.90
34955;DHT22;21639;51.460;-2.536;2022-08-04T02:21:56;15.40;99.90
34955;DHT22;21639;51.460;-2.536;2022-08-04T02:24:26;15.30;99.90
34955;DHT22;21639;51.460;-2.536;2022-08-04T02:26:55;15.30;99.90
34955;DHT22;21639;51.460;-2.536;2022-08-04T02:30:12;15.30;99.90
34955;DHT22;21639;51.460;-2.536;2022-08-04T02:32:32;15.20;99.90
34955;DHT22;21639;51.460;-2.536;2022-08-04T02:35:12;15.20;99.90
34955;DHT22;21639;51.460;-2.536;2022-08-04T02:37:47;15.20;99.90
34955;DHT22;21639;51.460;-2.536;2022-08-04T02:40:18;15.30;99.90
34955;DHT22;21639;51.460;-2.536;2022-08-04T02:42:45;15.50;99.90
34955;DHT22;21639;51.460;-2.536;2022-08-04T02:45:11;15.40;99.90
34955;DHT22;21639;51.460;-2.536;2022-08-04T02:47:38;15.30;99.90
34955;DHT22;21639;51.460;-2.536;2022-08-04T02:50:04;15.30;99.90
34955;DHT22;21639;51.460;-2.536;2022-08-04T02:52:33;15.40;99.90
34955;DHT22;21639;51.460;-2.536;2022-08-04T02:55:00;15.30;99.90
34955;DHT22;21639;51.460;-2.536;2022-08-04T02:57:29;15.30;99.90
34955;DHT22;21639;51.460;-2.536;2022-08-04T03:00:09;15.20;99.90
34955;DHT22;21639;51.460;-2.536;2022-08-04T03:19:53;15.00;99.90
34955;DHT22;21639;51.460;-2.536;2022-08-04T03:33:44;15.00;99.90
34955;DHT22;21639;51.460;-2.536;2022-08-04T03:45:22;15.40;99.90
34955;DHT22;21639;51.460;-2.536;2022-08-04T04:01:41;15.00;99.90
34955;DHT22;21639;51.460;-2.536;2022-08-04T04:15:50;14.80;99.90
34955;DHT22;21639;51.460;-2.536;2022-08-04T04:26:56;14.70;99.90
34955;DHT22;21639;51.460;-2.536;2022-08-04T04:29:46;14.70;99.90
34955;DHT22;21639;51.460;-2.536;2022-08-04T04:38:38;14.60;99.90
34955;DHT22;21639;51.460;-2.536;2022-08-04T04:44:28;14.50;99.90
34955;DHT22;21639;51.460;-2.536;2022-08-04T04:47:22;14.50;99.90
34955;DHT22;21639;51.460;-2.536;2022-08-04T04:49:50;14.50;99.90
34955;DHT22;21639;51.460;-2.536;2022-08-04T04:52:46;14.50;99.90
34955;DHT22;21639;51.460;-2.536;2022-08-04T04:55:23;14.50;99.90
34955;DHT22;21639;51.460;-2.536;2022-08-04T04:57:52;14.50;99.90
34955;DHT22;21639;51.460;-2.536;2022-08-04T05:00:33;14.50;99.90
34955;DHT22;21639;51.460;-2.536;2022-08-04T05:08:25;14.40;99.90
34955;DHT22;21639;51.460;-2.536;2022-08-04T05:16:31;14.40;99.90
34955;DHT22;21639;51.460;-2.536;2022-08-04T05:25:06;14.50;99.90
34955;DHT22;21639;51.460;-2.536;2022-08-04T05:27:50;14.60;99.90
34955;DHT22;21639;51.460;-2.536;2022-08-04T05:30:20;14.60;99.90
34955;DHT22;21639;51.460;-2.536;2022-08-04T05:33:03;14.60;99.90
34955;DHT22;21639;51.460;-2.536;2022-08-04T05:35:35;14.70;99.90
34955;DHT22;21639;51.460;-2.536;2022-08-04T05:38:02;14.70;99.90
34955;DHT22;21639;51.460;-2.536;2022-08-04T05:40:28;14.80;99.90
34955;DHT22;21639;51.460;-2.536;2022-08-04T05:42:55;14.80;99.90
34955;DHT22;21639;51.460;-2.536;2022-08-04T05:45:22;14.90;99.90
34955;DHT22;21639;51.460;-2.536;2022-08-04T05:47:50;15.00;99.90
34955;DHT22;21639;51.460;-2.536;2022-08-04T05:50:16;15.00;99.90
34955;DHT22;21639;51.460;-2.536;2022-08-04T05:52:43;15.10;99.90
34955;DHT22;21639;51.460;-2.536;2022-08-04T05:55:10;15.10;99.90
34955;DHT22;21639;51.460;-2.536;2022-08-04T05:57:39;15.30;99.90
34955;DHT22;21639;51.460;-2.536;2022-08-04T06:00:06;15.30;99.90
34955;DHT22;21639;51.460;-2.536;2022-08-04T06:02:34;15.40;99.90
34955;DHT22;21639;51.460;-2.536;2022-08-04T06:05:01;15.50;99.90
34955;DHT22;21639;51.460;-2.536;2022-08-04T06:07:28;15.60;99.90
34955;DHT22;21639;51.460;-2.536;2022-08-04T06:09:54;15.60;99.90
34955;DHT22;21639;51.460;-2.536;2022-08-04T06:12:24;15.80;99.90
34955;DHT22;21639;51.460;-2.536;2022-08-04T06:14:53;16.00;99.90
34955;DHT22;21639;51.460;-2.536;2022-08-04T06:17:25;16.10;99.90
34955;DHT22;21639;51.460;-2.536;2022-08-04T06:19:55;16.10;99.90
34955;DHT22;21639;51.460;-2.536;2022-08-04T06:22:22;16.20;99.90
34955;DHT22;21639;51.460;-2.536;2022-08-04T06:24:49;16.40;99.90
34955;DHT22;21639;51.460;-2.536;2022-08-04T06:27:16;16.70;99.90
34955;DHT22;21639;51.460;-2.536;2022-08-04T06:29:44;17.10;99.90
34955;DHT22;21639;51.460;-2.536;2022-08-04T06:32:12;17.10;99.90
34955;DHT22;21639;51.460;-2.536;2022-08-04T06:34:59;17.10;99.90
34955;DHT22;21639;51.460;-2.536;2022-08-04T06:37:26;17.20;99.90
34955;DHT22;21639;51.460;-2.536;2022-08-04T06:39:53;17.20;99.90
34955;DHT22;21639;51.460;-2.536;2022-08-04T06:42:23;17.20;99.90
34955;DHT22;21639;51.460;-2.536;2022-08-04T06:44:53;17.10;99.90
34955;DHT22;21639;51.460;-2.536;2022-08-04T06:47:20;17.00;99.90
34955;DHT22;21639;51.460;-2.536;2022-08-04T06:49:49;17.00;99.90
34955;DHT22;21639;51.460;-2.536;2022-08-04T06:52:16;17.10;99.90
34955;DHT22;21639;51.460;-2.536;2022-08-04T06:54:44;17.40;99.90
34955;DHT22;21639;51.460;-2.536;2022-08-04T06:57:12;17.30;99.90
34955;DHT22;21639;51.460;-2.536;2022-08-04T06:59:44;17.50;99.90
34955;DHT22;21639;51.460;-2.536;2022-08-04T07:02:14;17.50;99.90
34955;DHT22;21639;51.460;-2.536;2022-08-04T07:04:44;17.60;99.90
34955;DHT22;21639;51.460;-2.536;2022-08-04T07:07:11;17.60;99.90
34955;DHT22;21639;51.460;-2.536;2022-08-04T07:09:38;17.70;99.90
34955;DHT22;21639;51.460;-2.536;2022-08-04T07:12:05;17.90;99.90
34955;DHT22;21639;51.460;-2.536;2022-08-04T07:14:32;18.10;99.90
34955;DHT22;21639;51.460;-2.536;2022-08-04T07:17:07;18.20;99.90
34955;DHT22;21639;51.460;-2.536;2022-08-04T07:19:34;18.40;99.90
34955;DHT22;21639;51.460;-2.536;2022-08-04T07:22:01;18.30;99.90
34955;DHT22;21639;51.460;-2.536;2022-08-04T07:24:31;18.30;99.90
34955;DHT22;21639;51.460;-2.536;2022-08-04T07:26:57;18.40;99.90
34955;DHT22;21639;51.460;-2.536;2022-08-04T07:29:24;18.40;99.90
34955;DHT22;21639;51.460;-2.536;2022-08-04T07:31:50;18.40;99.90
34955;DHT22;21639;51.460;-2.536;2022-08-04T07:34:16;18.40;99.90
34955;DHT22;21639;51.460;-2.536;2022-08-04T07:36:42;18.40;99.90
34955;DHT22;21639;51.460;-2.536;2022-08-04T07:39:08;18.30;99.90
34955;DHT22;21639;51.460;-2.536;2022-08-04T07:41:34;18.40;99.90
34955;DHT22;21639;51.460;-2.536;2022-08-04T07:44:00;18.50;99.90
34955;DHT22;21639;51.460;-2.536;2022-08-04T07:46:26;18.50;99.90
34955;DHT22;21639;51.460;-2.536;2022-08-04T07:48:52;18.50;99.90
34955;DHT22;21639;51.460;-2.536;2022-08-04T07:51:18;18.50;99.90
34955;DHT22;21639;51.460;-2.536;2022-08-04T07:53:45;18.60;99.90
34955;DHT22;21639;51.460;-2.536;2022-08-04T07:56:12;18.60;99.90
34955;DHT22;21639;51.460;-2.536;2022-08-04T07:58:39;18.70;99.90
34955;DHT22;21639;51.460;-2.536;2022-08-04T08:01:05;18.70;99.90
34955;DHT22;21639;51.460;-2.536;2022-08-04T08:03:31;18.90;99.90
34955;DHT22;21639;51.460;-2.536;2022-08-04T08:05:57;19.00;99.90
34955;DHT22;21639;51.460;-2.536;2022-08-04T08:08:22;19.10;99.90
34955;DHT22;21639;51.460;-2.536;2022-08-04T08:10:48;19.00;99.90
34955;DHT22;21639;51.460;-2.536;2022-08-04T08:13:14;18.80;99.90
34955;DHT22;21639;51.460;-2.536;2022-08-04T08:15:42;18.80;99.90
34955;DHT22;21639;51.460;-2.536;2022-08-04T08:18:08;18.70;99.90
34955;DHT22;21639;51.460;-2.536;2022-08-04T08:20:34;18.80;99.90
34955;DHT22;21639;51.460;-2.536;2022-08-04T08:23:01;18.90;99.90
34955;DHT22;21639;51.460;-2.536;2022-08-04T08:25:29;18.90;99.90
34955;DHT22;21639;51.460;-2.536;2022-08-04T08:27:55;19.00;99.90
34955;DHT22;21639;51.460;-2.536;2022-08-04T08:30:21;19.00;99.90
34955;DHT22;21639;51.460;-2.536;2022-08-04T08:32:48;19.10;99.90
34955;DHT22;21639;51.460;-2.536;2022-08-04T08:35:14;19.00;99.90
34955;DHT22;21639;51.460;-2.536;2022-08-04T08:37:51;19.00;99.90
34955;DHT22;21639;51.460;-2.536;2022-08-04T08:51:43;19.40;99.90
34955;DHT22;21639;51.460;-2.536;2022-08-04T08:57:32;20.20;99.90
34955;DHT22;21639;51.460;-2.536;2022-08-04T09:00:14;20.60;99.90
34955;DHT22;21639;51.460;-2.536;2022-08-04T09:06:16;20.90;99.90
34955;DHT22;21639;51.460;-2.536;2022-08-04T09:08:54;20.80;99.90
34955;DHT22;21639;51.460;-2.536;2022-08-04T09:11:28;20.80;99.90
34955;DHT22;21639;51.460;-2.536;2022-08-04T09:14:43;20.50;99.90
34955;DHT22;21639;51.460;-2.536;2022-08-04T09:17:22;20.20;99.90
34955;DHT22;21639;51.460;-2.536;2022-08-04T09:20:06;20.00;99.90
34955;DHT22;21639;51.460;-2.536;2022-08-04T09:22:58;19.80;99.90
34955;DHT22;21639;51.460;-2.536;2022-08-04T09:25:30;19.50;99.90
34955;DHT22;21639;51.460;-2.536;2022-08-04T09:28:10;19.20;99.90
34955;DHT22;21639;51.460;-2.536;2022-08-04T09:30:51;19.10;99.90
34955;DHT22;21639;51.460;-2.536;2022-08-04T09:44:24;19.70;99.90
34955;DHT22;21639;51.460;-2.536;2022-08-04T09:46:58;19.70;99.90
34955;DHT22;21639;51.460;-2.536;2022-08-04T09:49:35;19.80;99.90
34955;DHT22;21639;51.460;-2.536;2022-08-04T09:52:10;20.10;99.90
34955;DHT22;21639;51.460;-2.536;2022-08-04T09:55:04;20.30;96.50
34955;DHT22;21639;51.460;-2.536;2022-08-04T09:57:54;20.20;92.80
34955;DHT22;21639;51.460;-2.536;2022-08-04T10:00:26;20.20;23.10
34955;DHT22;21639;51.460;-2.536;2022-08-04T10:02:58;20.40;18.80
34955;DHT22;21639;51.460;-2.536;2022-08-04T10:05:34;20.60;10.00
34955;DHT22;21639;51.460;-2.536;2022-08-04T10:13:35;20.00;1.00
34955;DHT22;21639;51.460;-2.536;2022-08-04T10:21:25;20.00;1.00
34955;DHT22;21639;51.460;-2.536;2022-08-04T10:24:18;20.20;99.90
34955;DHT22;21639;51.460;-2.536;2022-08-04T10:26:55;20.40;99.90
34955;DHT22;21639;51.460;-2.536;2022-08-04T10:29:52;20.50;99.90
34955;DHT22;21639;51.460;-2.536;2022-08-04T10:37:35;20.80;1.00
34955;DHT22;21639;51.460;-2.536;2022-08-04T10:40:11;20.90;1.00
34955;DHT22;21639;51.460;-2.536;2022-08-04T10:43:10;20.90;1.00
34955;DHT22;21639;51.460;-2.536;2022-08-04T10:45:44;20.70;1.00
34955;DHT22;21639;51.460;-2.536;2022-08-04T10:53:59;20.40;1.00
34955;DHT22;21639;51.460;-2.536;2022-08-04T10:56:37;20.60;1.00
34955;DHT22;21639;51.460;-2.536;2022-08-04T10:59:11;20.70;1.00
34955;DHT22;21639;51.460;-2.536;2022-08-04T11:01:41;20.80;1.00
34955;DHT22;21639;51.460;-2.536;2022-08-04T11:06:44;21.10;1.00
34955;DHT22;21639;51.460;-2.536;2022-08-04T11:09:11;21.20;99.90
34955;DHT22;21639;51.460;-2.536;2022-08-04T11:11:48;21.40;99.90
34955;DHT22;21639;51.460;-2.536;2022-08-04T11:14:19;21.60;99.90
34955;DHT22;21639;51.460;-2.536;2022-08-04T11:17:00;21.40;99.90
34955;DHT22;21639;51.460;-2.536;2022-08-04T11:22:08;21.30;99.90
34955;DHT22;21639;51.460;-2.536;2022-08-04T11:30:11;21.60;99.90
34955;DHT22;21639;51.460;-2.536;2022-08-04T11:33:09;21.80;99.90
34955;DHT22;21639;51.460;-2.536;2022-08-04T11:38:24;21.90;99.90
34955;DHT22;21639;51.460;-2.536;2022-08-04T11:40:53;21.90;99.90
34955;DHT22;21639;51.460;-2.536;2022-08-04T11:43:25;22.10;99.90
34955;DHT22;21639;51.460;-2.536;2022-08-04T11:46:00;22.00;99.90
34955;DHT22;21639;51.460;-2.536;2022-08-04T11:48:34;22.30;99.90
34955;DHT22;21639;51.460;-2.536;2022-08-04T11:51:01;22.60;99.90
34955;DHT22;21639;51.460;-2.536;2022-08-04T11:53:31;22.90;99.90
34955;DHT22;21639;51.460;-2.536;2022-08-04T11:56:01;23.40;99.90
34955;DHT22;21639;51.460;-2.536;2022-08-04T11:58:27;23.70;99.90
34955;DHT22;21639;51.460;-2.536;2022-08-04T12:03:58;23.30;99.90
34955;DHT22;21639;51.460;-2.536;2022-08-04T12:17:26;23.40;99.90
34955;DHT22;21639;51.460;-2.536;2022-08-04T12:20:02;23.50;99.90
34955;DHT22;21639;51.460;-2.536;2022-08-04T12:22:30;23.20;99.90
34955;DHT22;21639;51.460;-2.536;2022-08-04T12:25:12;22.30;99.90
34955;DHT22;21639;51.460;-2.536;2022-08-04T12:27:54;22.20;99.90
34955;DHT22;21639;51.460;-2.536;2022-08-04T12:30:22;22.30;99.90
34955;DHT22;21639;51.460;-2.536;2022-08-04T12:38:25;22.30;99.90
34955;DHT22;21639;51.460;-2.536;2022-08-04T12:40:56;22.60;99.90
34955;DHT22;21639;51.460;-2.536;2022-08-04T12:46:05;23.20;99.90
34955;DHT22;21639;51.460;-2.536;2022-08-04T12:48:34;23.40;99.90
34955;DHT22;21639;51.460;-2.536;2022-08-04T12:51:00;23.20;99.90
34955;DHT22;21639;51.460;-2.536;2022-08-04T12:53:32;23.10;99.90
34955;DHT22;21639;51.460;-2.536;2022-08-04T12:56:02;22.80;99.90
34955;DHT22;21639;51.460;-2.536;2022-08-04T12:58:32;22.60;99.90
34955;DHT22;21639;51.460;-2.536;2022-08-04T13:01:22;22.50;99.90
34955;DHT22;21639;51.460;-2.536;2022-08-04T13:03:59;22.60;99.90
34955;DHT22;21639;51.460;-2.536;2022-08-04T13:06:36;23.00;99.90
34955;DHT22;21639;51.460;-2.536;2022-08-04T13:09:10;23.40;99.90
34955;DHT22;21639;51.460;-2.536;2022-08-04T13:11:42;23.50;99.90
34955;DHT22;21639;51.460;-2.536;2022-08-04T13:14:11;23.40;99.90
34955;DHT22;21639;51.460;-2.536;2022-08-04T13:16:37;23.20;99.90
34955;DHT22;21639;51.460;-2.536;2022-08-04T13:19:07;22.90;99.90
34955;DHT22;21639;51.460;-2.536;2022-08-04T13:21:33;22.90;99.90
34955;DHT22;21639;51.460;-2.536;2022-08-04T13:24:05;23.40;99.90
34955;DHT22;21639;51.460;-2.536;2022-08-04T13:26:31;23.60;99.90
34955;DHT22;21639;51.460;-2.536;2022-08-04T13:29:00;23.30;99.90
34955;DHT22;21639;51.460;-2.536;2022-08-04T13:31:28;23.30;99.90
34955;DHT22;21639;51.460;-2.536;2022-08-04T13:34:03;23.70;99.90
34955;DHT22;21639;51.460;-2.536;2022-08-04T13:36:31;23.90;99.90
34955;DHT22;21639;51.460;-2.536;2022-08-04T13:39:02;24.10;99.90
34955;DHT22;21639;51.460;-2.536;2022-08-04T13:41:31;24.20;99.90
34955;DHT22;21639;51.460;-2.536;2022-08-04T13:43:59;24.00;99.90
34955;DHT22;21639;51.460;-2.536;2022-08-04T13:46:31;23.90;99.90
34955;DHT22;21639;51.460;-2.536;2022-08-04T13:49:00;23.90;99.90
34955;DHT22;21639;51.460;-2.536;2022-08-04T13:51:27;23.60;99.90
34955;DHT22;21639;51.460;-2.536;2022-08-04T13:53:57;23.30;99.90
34955;DHT22;21639;51.460;-2.536;2022-08-04T13:56:24;23.50;99.90
34955;DHT22;21639;51.460;-2.536;2022-08-04T13:58:56;24.00;99.90
34955;DHT22;21639;51.460;-2.536;2022-08-04T14:01:26;24.80;99.90
34955;DHT22;21639;51.460;-2.536;2022-08-04T14:06:48;24.40;99.90
34955;DHT22;21639;51.460;-2.536;2022-08-04T14:09:20;24.80;99.90
34955;DHT22;21639;51.460;-2.536;2022-08-04T14:11:51;25.50;99.90
34955;DHT22;21639;51.460;-2.536;2022-08-04T14:14:32;26.10;99.90
34955;DHT22;21639;51.460;-2.536;2022-08-04T14:17:13;26.40;99.90
34955;DHT22;21639;51.460;-2.536;2022-08-04T14:25:14;27.40;99.90
34955;DHT22;21639;51.460;-2.536;2022-08-04T14:27:46;28.20;99.90
34955;DHT22;21639;51.460;-2.536;2022-08-04T14:30:34;29.10;99.90
34955;DHT22;21639;51.460;-2.536;2022-08-04T14:35:28;26.60;99.90
34955;DHT22;21639;51.460;-2.536;2022-08-04T14:37:59;26.40;99.90
34955;DHT22;21639;51.460;-2.536;2022-08-04T14:40:30;26.40;99.90
34955;DHT22;21639;51.460;-2.536;2022-08-04T14:42:56;27.20;99.90
34955;DHT22;21639;51.460;-2.536;2022-08-04T14:45:35;28.30;99.90
34955;DHT22;21639;51.460;-2.536;2022-08-04T14:48:14;28.10;99.90
34955;DHT22;21639;51.460;-2.536;2022-08-04T14:50:45;27.50;99.90
34955;DHT22;21639;51.460;-2.536;2022-08-04T14:53:20;27.20;99.90
34955;DHT22;21639;51.460;-2.536;2022-08-04T14:55:49;26.80;99.90
34955;DHT22;21639;51.460;-2.536;2022-08-04T14:58:20;26.40;99.90
34955;DHT22;21639;51.460;-2.536;2022-08-04T15:00:47;26.00;99.90
34955;DHT22;21639;51.460;-2.536;2022-08-04T15:03:14;25.90;99.90
34955;DHT22;21639;51.460;-2.536;2022-08-04T15:05:41;26.00;99.90
34955;DHT22;21639;51.460;-2.536;2022-08-04T15:08:07;26.90;99.90
34955;DHT22;21639;51.460;-2.536;2022-08-04T15:10:34;27.70;99.90
34955;DHT22;21639;51.460;-2.536;2022-08-04T15:13:01;28.60;99.90
34955;DHT22;21639;51.460;-2.536;2022-08-04T15:15:27;27.90;99.90
34955;DHT22;21639;51.460;-2.536;2022-08-04T15:17:54;28.50;99.90
34955;DHT22;21639;51.460;-2.536;2022-08-04T15:20:20;29.00;99.90
34955;DHT22;21639;51.460;-2.536;2022-08-04T15:22:46;30.70;99.90
34955;DHT22;21639;51.460;-2.536;2022-08-04T15:25:12;30.70;99.90
34955;DHT22;21639;51.460;-2.536;2022-08-04T15:27:39;29.60;99.90
34955;DHT22;21639;51.460;-2.536;2022-08-04T15:30:13;30.70;99.90
34955;DHT22;21639;51.460;-2.536;2022-08-04T15:32:47;31.70;99.90
34955;DHT22;21639;51.460;-2.536;2022-08-04T15:35:19;32.80;99.90
34955;DHT22;21639;51.460;-2.536;2022-08-04T15:38:10;30.30;99.90
34955;DHT22;21639;51.460;-2.536;2022-08-04T15:40:46;28.70;99.90
34955;DHT22;21639;51.460;-2.536;2022-08-04T15:43:44;27.10;99.90
34955;DHT22;21639;51.460;-2.536;2022-08-04T15:46:10;26.60;99.90
34955;DHT22;21639;51.460;-2.536;2022-08-04T15:48:37;26.80;99.90
34955;DHT22;21639;51.460;-2.536;2022-08-04T15:51:06;26.90;99.90
34955;DHT22;21639;51.460;-2.536;2022-08-04T15:56:43;28.60;99.90
34955;DHT22;21639;51.460;-2.536;2022-08-04T15:59:08;29.70;99.90
34955;DHT22;21639;51.460;-2.536;2022-08-04T16:01:34;29.70;99.90
34955;DHT22;21639;51.460;-2.536;2022-08-04T16:04:20;29.00;99.90
34955;DHT22;21639;51.460;-2.536;2022-08-04T16:06:46;28.10;99.90
34955;DHT22;21639;51.460;-2.536;2022-08-04T16:09:23;27.40;99.90
34955;DHT22;21639;51.460;-2.536;2022-08-04T16:11:50;26.60;99.90
34955;DHT22;21639;51.460;-2.536;2022-08-04T16:14:15;26.00;99.90
34955;DHT22;21639;51.460;-2.536;2022-08-04T16:21:57;30.30;99.90
34955;DHT22;21639;51.460;-2.536;2022-08-04T16:24:36;31.90;99.90
34955;DHT22;21639;51.460;-2.536;2022-08-04T16:27:09;33.60;99.90
34955;DHT22;21639;51.460;-2.536;2022-08-04T16:34:35;31.30;99.90
34955;DHT22;21639;51.460;-2.536;2022-08-04T16:37:03;29.70;99.90
34955;DHT22;21639;51.460;-2.536;2022-08-04T16:39:29;28.30;99.90
34955;DHT22;21639;51.460;-2.536;2022-08-04T16:41:56;27.30;99.90
34955;DHT22;21639;51.460;-2.536;2022-08-04T16:44:32;26.30;99.90
34955;DHT22;21639;51.460;-2.536;2022-08-04T16:46:59;26.80;99.90
34955;DHT22;21639;51.460;-2.536;2022-08-04T16:49:27;28.30;99.90
34955;DHT22;21639;51.460;-2.536;2022-08-04T16:51:54;30.00;99.90
34955;DHT22;21639;51.460;-2.536;2022-08-04T16:54:25;31.70;99.90
34955;DHT22;21639;51.460;-2.536;2022-08-04T16:56:54;33.40;99.90
34955;DHT22;21639;51.460;-2.536;2022-08-04T16:59:20;34.90;99.90
34955;DHT22;21639;51.460;-2.536;2022-08-04T17:01:51;34.00;99.90
34955;DHT22;21639;51.460;-2.536;2022-08-04T17:04:30;33.30;99.90
34955;DHT22;21639;51.460;-2.536;2022-08-04T17:07:04;33.40;99.90
34955;DHT22;21639;51.460;-2.536;2022-08-04T17:09:31;34.10;99.90
34955;DHT22;21639;51.460;-2.536;2022-08-04T17:11:57;32.50;99.90
34955;DHT22;21639;51.460;-2.536;2022-08-04T17:14:28;29.90;99.90
34955;DHT22;21639;51.460;-2.536;2022-08-04T17:16:57;27.90;99.90
34955;DHT22;21639;51.460;-2.536;2022-08-04T17:19:23;26.80;99.90
34955;DHT22;21639;51.460;-2.536;2022-08-04T17:21:50;26.00;99.90
34955;DHT22;21639;51.460;-2.536;2022-08-04T17:24:16;25.40;99.90
34955;DHT22;21639;51.460;-2.536;2022-08-04T17:26:43;24.70;99.90
34955;DHT22;21639;51.460;-2.536;2022-08-04T17:29:09;24.60;99.90
34955;DHT22;21639;51.460;-2.536;2022-08-04T17:31:37;24.40;99.90
34955;DHT22;21639;51.460;-2.536;2022-08-04T17:34:09;24.20;99.90
34955;DHT22;21639;51.460;-2.536;2022-08-04T17:36:37;23.90;99.90
34955;DHT22;21639;51.460;-2.536;2022-08-04T17:41:38;23.00;99.90
34955;DHT22;21639;51.460;-2.536;2022-08-04T17:44:04;22.90;99.90
34955;DHT22;21639;51.460;-2.536;2022-08-04T17:46:43;22.70;99.90
34955;DHT22;21639;51.460;-2.536;2022-08-04T17:54:08;22.70;99.90
34955;DHT22;21639;51.460;-2.536;2022-08-04T17:56:45;22.60;99.90
34955;DHT22;21639;51.460;-2.536;2022-08-04T18:09:37;22.80;99.90
34955;DHT22;21639;51.460;-2.536;2022-08-04T18:12:10;22.80;99.90
34955;DHT22;21639;51.460;-2.536;2022-08-04T18:14:51;22.80;99.90
34955;DHT22;21639;51.460;-2.536;2022-08-04T18:17:33;22.90;99.90
34955;DHT22;21639;51.460;-2.536;2022-08-04T18:20:01;22.80;99.90
34955;DHT22;21639;51.460;-2.536;2022-08-04T18:22:27;22.80;99.90
34955;DHT22;21639;51.460;-2.536;2022-08-04T18:24:53;22.70;99.90
34955;DHT22;21639;51.460;-2.536;2022-08-04T18:27:24;22.70;99.90
34955;DHT22;21639;51.460;-2.536;2022-08-04T18:29:52;22.70;99.90
34955;DHT22;21639;51.460;-2.536;2022-08-04T18:32:18;22.60;99.90
34955;DHT22;21639;51.460;-2.536;2022-08-04T18:34:45;22.60;99.90
34955;DHT22;21639;51.460;-2.536;2022-08-04T18:37:11;22.50;99.90
34955;DHT22;21639;51.460;-2.536;2022-08-04T18:39:37;22.30;99.90
34955;DHT22;21639;51.460;-2.536;2022-08-04T18:42:02;22.20;99.90
34955;DHT22;21639;51.460;-2.536;2022-08-04T18:44:30;22.20;99.90
34955;DHT22;21639;51.460;-2.536;2022-08-04T18:46:56;22.30;99.90
34955;DHT22;21639;51.460;-2.536;2022-08-04T18:49:22;22.30;99.90
34955;DHT22;21639;51.460;-2.536;2022-08-04T18:51:52;22.40;99.90
34955;DHT22;21639;51.460;-2.536;2022-08-04T18:54:19;22.60;99.90
34955;DHT22;21639;51.460;-2.536;2022-08-04T18:56:45;23.40;99.90
34955;DHT22;21639;51.460;-2.536;2022-08-04T18:59:11;23.80;99.90
34955;DHT22;21639;51.460;-2.536;2022-08-04T19:01:37;24.30;99.90
34955;DHT22;21639;51.460;-2.536;2022-08-04T19:04:03;24.80;99.90
34955;DHT22;21639;51.460;-2.536;2022-08-04T19:06:29;24.70;99.90
34955;DHT22;21639;51.460;-2.536;2022-08-04T19:08:55;24.80;99.90
34955;DHT22;21639;51.460;-2.536;2022-08-04T19:11:21;24.80;99.90
34955;DHT22;21639;51.460;-2.536;2022-08-04T19:13:47;25.00;99.90
34955;DHT22;21639;51.460;-2.536;2022-08-04T19:16:12;25.10;99.90
34955;DHT22;21639;51.460;-2.536;2022-08-04T19:18:38;24.90;99.90
34955;DHT22;21639;51.460;-2.536;2022-08-04T19:21:04;23.70;99.90
34955;DHT22;21639;51.460;-2.536;2022-08-04T19:23:30;22.70;99.90
34955;DHT22;21639;51.460;-2.536;2022-08-04T19:25:56;22.00;99.90
34955;DHT22;21639;51.460;-2.536;2022-08-04T19:28:24;21.40;99.90
34955;DHT22;21639;51.460;-2.536;2022-08-04T19:30:49;21.10;99.90
34955;DHT22;21639;51.460;-2.536;2022-08-04T19:33:15;20.80;99.90
34955;DHT22;21639;51.460;-2.536;2022-08-04T19:35:41;20.50;99.90
34955;DHT22;21639;51.460;-2.536;2022-08-04T19:38:08;20.20;99.90
34955;DHT22;21639;51.460;-2.536;2022-08-04T19:40:37;20.00;99.90
34955;DHT22;21639;51.460;-2.536;2022-08-04T19:43:05;19.80;99.90
34955;DHT22;21639;51.460;-2.536;2022-08-04T19:45:32;19.60;99.90
34955;DHT22;21639;51.460;-2.536;2022-08-04T19:47:58;19.50;99.90
34955;DHT22;21639;51.460;-2.536;2022-08-04T19:50:24;19.40;99.90
34955;DHT22;21639;51.460;-2.536;2022-08-04T19:52:51;19.30;99.90
34955;DHT22;21639;51.460;-2.536;2022-08-04T19:55:17;19.30;1.00
34955;DHT22;21639;51.460;-2.536;2022-08-04T19:57:43;19.20;1.00
34955;DHT22;21639;51.460;-2.536;2022-08-04T20:00:09;19.10;1.00
34955;DHT22;21639;51.460;-2.536;2022-08-04T20:02:37;19.10;1.00
34955;DHT22;21639;51.460;-2.536;2022-08-04T20:05:03;19.00;1.00
34955;DHT22;21639;51.460;-2.536;2022-08-04T20:07:29;18.90;1.00
34955;DHT22;21639;51.460;-2.536;2022-08-04T20:09:55;18.90;1.00
34955;DHT22;21639;51.460;-2.536;2022-08-04T20:12:20;18.80;1.00
34955;DHT22;21639;51.460;-2.536;2022-08-04T20:14:46;18.80;1.00